Time;durP1;ratioP1;P1;durP2;ratioP2;P2;SDS_P1;SDS_P2;PMS_P1;PMS_P2;Temp;Humidity;BMP_temperature;BMP_pressure;BME280_temperature;BME280_humidity;BME280_pressure;Samples;Min_cycle;Max_cycle;Signal;HPM_P1;HPM_P2
2023/03/20 00:00:00;;;;;;;0.9;0.9;;;;;;;10.0;100.0;101740;;;;
2023/03/20 00:01:00;;;;;;;0.9;0.9;;;;;;;10.0;100.0;101740;;;;
2023/03/20 00:02:00;;;;;;;0.9;0.9;;;;;;;10.0;100.0;101740;;;;
2023/03/20 00:03:01;;;;;;;0.9;0.9;;;;;;;9.9;100.0;101750;;;;
2023/03/20 00:04:00;;;;;;;1.1;1.1;;;;;;;9.9;100.0;101750;;;;
2023/03/20 00:05:00;;;;;;;1.1;1.1;;;;;;;10.0;100.0;101740;;;;
2023/03/20 00:06:00;;;;;;;1.1;1.1;;;;;;;10.0;100.0;101740;;;;
2023/03/20 00:07:00;;;;;;;1.1;1.1;;;;;;;10.0;100.0;101750;;;;
2023/03/20 00:08:00;;;;;;;1.1;1.1;;;;;;;10.0;100.0;101750;;;;
2023/03/20 00:09:08;;;;;;;1.1;1.1;;;;;;;10.0;100.0;101750;;;;
2023/03/20 00:10:00;;;;;;;1.1;1.1;;;;;;;10.0;100.0;101750;;;;
2023/03/20 00:11:00;;;;;;;1.1;1.1;;;;;;;10.0;100.0;101750;;;;
2023/03/20 00:12:00;;;;;;;1.1;1.1;;;;;;;10.0;100.0;101750;;;;
2023/03/20 00:13:00;;;;;;;1.1;1.1;;;;;;;10.0;100.0;101750;;;;
2023/03/20 00:14:03;;;;;;;1.1;1.1;;;;;;;10.0;100.0;101750;;;;
2023/03/20 00:15:02;;;;;;;1.1;1.1;;;;;;;10.0;100.0;101740;;;;
2023/03/20 00:16:01;;;;;;;1.1;1.1;;;;;;;10.0;100.0;101740;;;;
2023/03/20 00:17:00;;;;;;;1.1;1.1;;;;;;;10.0;100.0;101740;;;;
2023/03/20 00:18:00;;;;;;;1.1;1.1;;;;;;;10.0;100.0;101740;;;;
2023/03/20 00:19:02;;;;;;;1.1;1.1;;;;;;;9.9;100.0;101740;;;;
2023/03/20 00:20:00;;;;;;;1.1;1.1;;;;;;;9.9;100.0;101740;;;;
2023/03/20 00:21:00;;;;;;;1.1;1.1;;;;;;;10.0;100.0;101730;;;;
2023/03/20 00:22:00;;;;;;;1.1;1.1;;;;;;;10.0;100.0;101730;;;;
2023/03/20 00:23:00;;;;;;;1.1;1.1;;;;;;;10.0;100.0;101740;;;;
2023/03/20 00:24:00;;;;;;;1.0;1.0;;;;;;;10.0;100.0;101740;;;;
2023/03/20 00:25:00;;;;;;;1.0;1.0;;;;;;;10.0;100.0;101740;;;;
2023/03/20 00:26:00;;;;;;;1.0;1.0;;;;;;;10.0;100.0;101740;;;;
2023/03/20 00:27:01;;;;;;;1.0;1.0;;;;;;;9.9;100.0;101730;;;;
2023/03/20 00:28:00;;;;;;;1.0;1.0;;;;;;;9.9;100.0;101730;;;;
2023/03/20 00:29:02;;;;;;;1.0;1.0;;;;;;;9.8;100.0;101740;;;;
2023/03/20 00:30:01;;;;;;;1.0;1.0;;;;;;;9.8;100.0;101740;;;;
2023/03/20 00:31:00;;;;;;;1.0;1.0;;;;;;;9.8;100.0;101740;;;;
2023/03/20 00:32:00;;;;;;;1.0;1.0;;;;;;;9.8;100.0;101740;;;;
2023/03/20 00:33:00;;;;;;;1.0;1.0;;;;;;;9.9;100.0;101740;;;;
2023/03/20 00:34:02;;;;;;;1.0;1.0;;;;;;;9.9;100.0;101740;;;;
2023/03/20 00:35:02;;;;;;;1.0;1.0;;;;;;;9.8;100.0;101730;;;;
2023/03/20 00:36:00;;;;;;;1.0;1.0;;;;;;;9.8;100.0;101730;;;;
2023/03/20 00:37:00;;;;;;;1.0;1.0;;;;;;;9.9;100.0;101720;;;;
2023/03/20 00:38:00;;;;;;;1.0;1.0;;;;;;;9.9;100.0;101720;;;;
2023/03/20 00:39:00;;;;;;;1.0;1.0;;;;;;;9.8;100.0;101730;;;;
2023/03/20 00:40:00;;;;;;;1.0;1.0;;;;;;;9.8;100.0;101730;;;;
2023/03/20 00:41:00;;;;;;;1.0;1.0;;;;;;;9.8;100.0;101720;;;;
2023/03/20 00:42:01;;;;;;;1.0;1.0;;;;;;;9.8;100.0;101720;;;;
2023/03/20 00:43:01;;;;;;;1.0;1.0;;;;;;;9.7;100.0;101720;;;;
2023/03/20 00:44:03;;;;;;;1.0;1.0;;;;;;;9.7;100.0;101720;;;;
2023/03/20 00:45:01;;;;;;;1.0;1.0;;;;;;;9.7;100.0;101710;;;;
2023/03/20 00:46:00;;;;;;;1.0;1.0;;;;;;;9.7;100.0;101710;;;;
2023/03/20 00:47:10;;;;;;;1.0;1.0;;;;;;;9.7;100.0;101710;;;;
2023/03/20 00:48:00;;;;;;;1.0;1.0;;;;;;;9.7;100.0;101710;;;;
2023/03/20 00:49:00;;;;;;;1.0;1.0;;;;;;;9.6;100.0;101710;;;;
2023/03/20 00:50:00;;;;;;;1.0;1.0;;;;;;;9.6;100.0;101710;;;;
2023/03/20 00:51:00;;;;;;;1.0;1.0;;;;;;;9.7;100.0;101700;;;;
2023/03/20 00:52:01;;;;;;;1.0;1.0;;;;;;;9.7;100.0;101700;;;;
2023/03/20 00:53:00;;;;;;;1.0;1.0;;;;;;;9.7;100.0;101700;;;;
2023/03/20 00:54:00;;;;;;;1.0;1.0;;;;;;;9.7;100.0;101700;;;;
2023/03/20 00:55:00;;;;;;;1.0;1.0;;;;;;;9.7;100.0;101700;;;;
2023/03/20 00:56:00;;;;;;;1.0;1.0;;;;;;;9.7;100.0;101700;;;;
2023/03/20 00:57:07;;;;;;;1.0;1.0;;;;;;;9.7;100.0;101700;;;;
2023/03/20 00:58:01;;;;;;;1.0;1.0;;;;;;;9.7;100.0;101700;;;;
2023/03/20 00:59:01;;;;;;;1.0;1.0;;;;;;;9.7;100.0;101700;;;;
2023/03/20 01:00:04;;;;;;;1.0;1.0;;;;;;;9.7;100.0;101700;;;;
2023/03/20 01:01:00;;;;;;;1.0;1.0;;;;;;;9.6;100.0;101710;;;;
2023/03/20 01:02:01;;;;;;;1.0;1.0;;;;;;;9.6;100.0;101710;;;;
2023/03/20 01:03:02;;;;;;;1.0;1.0;;;;;;;9.6;100.0;101710;;;;
2023/03/20 01:04:00;;;;;;;1.3;1.3;;;;;;;9.6;100.0;101710;;;;
2023/03/20 01:05:01;;;;;;;1.3;1.3;;;;;;;9.6;100.0;101710;;;;
2023/03/20 01:06:00;;;;;;;1.3;1.3;;;;;;;9.6;100.0;101710;;;;
2023/03/20 01:07:00;;;;;;;1.3;1.3;;;;;;;9.6;100.0;101710;;;;
2023/03/20 01:08:00;;;;;;;1.3;1.3;;;;;;;9.6;100.0;101710;;;;
2023/03/20 01:09:00;;;;;;;1.3;1.3;;;;;;;9.6;100.0;101720;;;;
2023/03/20 01:10:00;;;;;;;1.3;1.3;;;;;;;9.6;100.0;101720;;;;
2023/03/20 01:11:00;;;;;;;1.3;1.3;;;;;;;9.7;100.0;101720;;;;
2023/03/20 01:12:01;;;;;;;1.3;1.3;;;;;;;9.7;100.0;101720;;;;
2023/03/20 01:13:00;;;;;;;1.3;1.3;;;;;;;9.6;100.0;101730;;;;
2023/03/20 01:14:01;;;;;;;1.3;1.3;;;;;;;9.6;100.0;101730;;;;
2023/03/20 01:15:00;;;;;;;1.3;1.3;;;;;;;9.6;100.0;101740;;;;
2023/03/20 01:16:00;;;;;;;1.3;1.3;;;;;;;9.6;100.0;101740;;;;
2023/03/20 01:17:00;;;;;;;1.3;1.3;;;;;;;9.6;100.0;101740;;;;
2023/03/20 01:18:00;;;;;;;1.3;1.3;;;;;;;9.6;100.0;101740;;;;
2023/03/20 01:19:00;;;;;;;1.3;1.3;;;;;;;9.5;100.0;101750;;;;
2023/03/20 01:20:00;;;;;;;1.3;1.3;;;;;;;9.5;100.0;101750;;;;
2023/03/20 01:21:00;;;;;;;1.3;1.3;;;;;;;9.5;100.0;101750;;;;
2023/03/20 01:22:01;;;;;;;1.3;1.3;;;;;;;9.5;100.0;101750;;;;
2023/03/20 01:23:00;;;;;;;1.3;1.3;;;;;;;9.6;100.0;101740;;;;
2023/03/20 01:24:00;;;;;;;1.2;1.2;;;;;;;9.6;100.0;101740;;;;
2023/03/20 01:25:01;;;;;;;1.2;1.2;;;;;;;9.6;100.0;101740;;;;
2023/03/20 01:26:00;;;;;;;1.2;1.2;;;;;;;9.6;100.0;101740;;;;
2023/03/20 01:27:02;;;;;;;1.2;1.2;;;;;;;9.5;100.0;101740;;;;
2023/03/20 01:28:00;;;;;;;1.2;1.2;;;;;;;9.5;100.0;101740;;;;
2023/03/20 01:29:00;;;;;;;1.2;1.2;;;;;;;9.5;100.0;101740;;;;
2023/03/20 01:30:00;;;;;;;1.2;1.2;;;;;;;9.5;100.0;101740;;;;
2023/03/20 01:31:00;;;;;;;1.2;1.2;;;;;;;9.5;100.0;101740;;;;
2023/03/20 01:32:00;;;;;;;1.2;1.2;;;;;;;9.5;100.0;101740;;;;
2023/03/20 01:33:01;;;;;;;1.2;1.2;;;;;;;9.4;100.0;101740;;;;
2023/03/20 01:34:02;;;;;;;1.2;1.2;;;;;;;9.4;100.0;101740;;;;
2023/03/20 01:35:00;;;;;;;1.2;1.2;;;;;;;9.4;100.0;101740;;;;
2023/03/20 01:36:00;;;;;;;1.2;1.2;;;;;;;9.4;100.0;101740;;;;
2023/03/20 01:37:00;;;;;;;1.2;1.2;;;;;;;9.4;100.0;101740;;;;
2023/03/20 01:38:00;;;;;;;1.2;1.2;;;;;;;9.4;100.0;101740;;;;
2023/03/20 01:39:00;;;;;;;1.2;1.2;;;;;;;9.5;100.0;101750;;;;
2023/03/20 01:40:00;;;;;;;1.2;1.2;;;;;;;9.5;100.0;101750;;;;
2023/03/20 01:41:06;;;;;;;1.2;1.2;;;;;;;9.4;100.0;101760;;;;
2023/03/20 01:42:01;;;;;;;1.2;1.2;;;;;;;9.4;100.0;101760;;;;
2023/03/20 01:43:02;;;;;;;1.2;1.2;;;;;;;9.4;100.0;101750;;;;
2023/03/20 01:44:05;;;;;;;1.8;1.4;;;;;;;9.4;100.0;101750;;;;
2023/03/20 01:45:00;;;;;;;1.8;1.4;;;;;;;9.4;100.0;101750;;;;
2023/03/20 01:46:02;;;;;;;1.8;1.4;;;;;;;9.4;100.0;101750;;;;
2023/03/20 01:47:01;;;;;;;1.8;1.4;;;;;;;9.1;100.0;101760;;;;
2023/03/20 01:48:02;;;;;;;1.8;1.4;;;;;;;9.1;100.0;101760;;;;
2023/03/20 01:49:05;;;;;;;1.8;1.4;;;;;;;9.1;100.0;101750;;;;
2023/03/20 01:50:10;;;;;;;1.8;1.4;;;;;;;9.1;100.0;101750;;;;
2023/03/20 01:51:00;;;;;;;1.8;1.4;;;;;;;9.2;100.0;101750;;;;
2023/03/20 01:52:00;;;;;;;1.8;1.4;;;;;;;9.2;100.0;101750;;;;
2023/03/20 01:53:03;;;;;;;1.8;1.4;;;;;;;9.1;100.0;101750;;;;
2023/03/20 01:54:00;;;;;;;1.8;1.4;;;;;;;9.1;100.0;101750;;;;
2023/03/20 01:55:01;;;;;;;1.8;1.4;;;;;;;9.1;100.0;101750;;;;
2023/03/20 01:56:00;;;;;;;1.8;1.4;;;;;;;9.1;100.0;101750;;;;
2023/03/20 01:57:10;;;;;;;1.8;1.4;;;;;;;9.1;100.0;101750;;;;
2023/03/20 01:58:05;;;;;;;1.8;1.4;;;;;;;9.1;100.0;101750;;;;
2023/03/20 01:59:04;;;;;;;1.8;1.4;;;;;;;9.1;100.0;101740;;;;
2023/03/20 02:00:04;;;;;;;1.8;1.4;;;;;;;9.1;100.0;101740;;;;
2023/03/20 02:01:00;;;;;;;1.8;1.4;;;;;;;9.1;100.0;101740;;;;
2023/03/20 02:02:00;;;;;;;1.8;1.4;;;;;;;9.1;100.0;101740;;;;
2023/03/20 02:03:00;;;;;;;1.8;1.4;;;;;;;9.1;100.0;101740;;;;
2023/03/20 02:04:00;;;;;;;1.0;1.0;;;;;;;9.1;100.0;101740;;;;
2023/03/20 02:05:02;;;;;;;1.0;1.0;;;;;;;9.0;100.0;101740;;;;
2023/03/20 02:06:00;;;;;;;1.0;1.0;;;;;;;9.0;100.0;101740;;;;
2023/03/20 02:07:00;;;;;;;1.0;1.0;;;;;;;8.9;100.0;101740;;;;
2023/03/20 02:08:07;;;;;;;1.0;1.0;;;;;;;8.9;100.0;101740;;;;
2023/03/20 02:09:00;;;;;;;1.0;1.0;;;;;;;8.9;100.0;101730;;;;
2023/03/20 02:10:04;;;;;;;1.0;1.0;;;;;;;8.9;100.0;101730;;;;
2023/03/20 02:11:01;;;;;;;1.0;1.0;;;;;;;8.9;100.0;101730;;;;
2023/03/20 02:12:01;;;;;;;1.0;1.0;;;;;;;8.9;100.0;101730;;;;
2023/03/20 02:13:01;;;;;;;1.0;1.0;;;;;;;8.8;100.0;101740;;;;
2023/03/20 02:14:00;;;;;;;1.0;1.0;;;;;;;8.8;100.0;101740;;;;
2023/03/20 02:15:00;;;;;;;1.0;1.0;;;;;;;8.8;100.0;101730;;;;
2023/03/20 02:16:03;;;;;;;1.0;1.0;;;;;;;8.8;100.0;101730;;;;
2023/03/20 02:17:01;;;;;;;1.0;1.0;;;;;;;8.8;100.0;101730;;;;
2023/03/20 02:18:00;;;;;;;1.0;1.0;;;;;;;8.8;100.0;101730;;;;
2023/03/20 02:19:00;;;;;;;1.0;1.0;;;;;;;8.7;100.0;101730;;;;
2023/03/20 02:20:00;;;;;;;1.0;1.0;;;;;;;8.7;100.0;101730;;;;
2023/03/20 02:21:10;;;;;;;1.0;1.0;;;;;;;8.7;100.0;101730;;;;
2023/03/20 02:22:10;;;;;;;1.0;1.0;;;;;;;8.7;100.0;101730;;;;
2023/03/20 02:23:00;;;;;;;1.1;1.1;;;;;;;8.6;100.0;101730;;;;
2023/03/20 02:24:10;;;;;;;1.1;1.1;;;;;;;8.6;100.0;101730;;;;
2023/03/20 02:25:14;;;;;;;1.1;1.1;;;;;;;8.6;100.0;101740;;;;
2023/03/20 02:26:10;;;;;;;1.1;1.1;;;;;;;8.6;100.0;101740;;;;
2023/03/20 02:27:00;;;;;;;1.1;1.1;;;;;;;8.6;100.0;101750;;;;
2023/03/20 02:28:01;;;;;;;1.1;1.1;;;;;;;8.6;100.0;101750;;;;
2023/03/20 02:29:11;;;;;;;1.1;1.1;;;;;;;8.6;100.0;101750;;;;
2023/03/20 02:30:11;;;;;;;1.1;1.1;;;;;;;8.6;100.0;101750;;;;
2023/03/20 02:31:10;;;;;;;1.1;1.1;;;;;;;8.5;100.0;101750;;;;
2023/03/20 02:32:10;;;;;;;1.1;1.1;;;;;;;8.5;100.0;101750;;;;
2023/03/20 02:33:10;;;;;;;1.1;1.1;;;;;;;8.5;100.0;101740;;;;
2023/03/20 02:34:01;;;;;;;1.1;1.1;;;;;;;8.5;100.0;101740;;;;
2023/03/20 02:35:10;;;;;;;1.1;1.1;;;;;;;8.5;100.0;101750;;;;
2023/03/20 02:36:10;;;;;;;1.1;1.1;;;;;;;8.5;100.0;101750;;;;
2023/03/20 02:37:10;;;;;;;1.1;1.1;;;;;;;8.4;100.0;101760;;;;
2023/03/20 02:38:10;;;;;;;1.1;1.1;;;;;;;8.4;100.0;101760;;;;
2023/03/20 02:39:06;;;;;;;1.1;1.1;;;;;;;8.4;100.0;101750;;;;
2023/03/20 02:40:00;;;;;;;1.1;1.1;;;;;;;8.4;100.0;101750;;;;
2023/03/20 02:41:10;;;;;;;1.1;1.1;;;;;;;8.5;100.0;101750;;;;
2023/03/20 02:42:10;;;;;;;1.1;1.1;;;;;;;8.5;100.0;101750;;;;
2023/03/20 02:43:08;;;;;;;2.0;1.9;;;;;;;8.4;100.0;101760;;;;
2023/03/20 02:44:10;;;;;;;2.0;1.9;;;;;;;8.4;100.0;101760;;;;
2023/03/20 02:45:10;;;;;;;2.0;1.9;;;;;;;8.4;100.0;101750;;;;
2023/03/20 02:46:06;;;;;;;2.0;1.9;;;;;;;8.4;100.0;101750;;;;
2023/03/20 02:47:03;;;;;;;2.0;1.9;;;;;;;8.4;100.0;101740;;;;
2023/03/20 02:48:10;;;;;;;2.0;1.9;;;;;;;8.4;100.0;101740;;;;
2023/03/20 02:49:04;;;;;;;2.0;1.9;;;;;;;8.5;100.0;101750;;;;
2023/03/20 02:50:07;;;;;;;2.0;1.9;;;;;;;8.5;100.0;101750;;;;
2023/03/20 02:51:10;;;;;;;2.0;1.9;;;;;;;8.4;100.0;101740;;;;
2023/03/20 02:52:05;;;;;;;2.0;1.9;;;;;;;8.4;100.0;101740;;;;
2023/03/20 02:53:11;;;;;;;2.0;1.9;;;;;;;8.4;100.0;101730;;;;
2023/03/20 02:54:10;;;;;;;2.0;1.9;;;;;;;8.4;100.0;101730;;;;
2023/03/20 02:55:01;;;;;;;2.0;1.9;;;;;;;8.5;100.0;101730;;;;
2023/03/20 02:56:10;;;;;;;2.0;1.9;;;;;;;8.5;100.0;101730;;;;
2023/03/20 02:57:04;;;;;;;2.0;1.9;;;;;;;8.3;100.0;101730;;;;
2023/03/20 02:58:00;;;;;;;2.0;1.9;;;;;;;8.3;100.0;101730;;;;
2023/03/20 02:59:01;;;;;;;2.0;1.9;;;;;;;8.3;100.0;101730;;;;
2023/03/20 03:00:08;;;;;;;2.0;1.9;;;;;;;8.3;100.0;101730;;;;
2023/03/20 03:01:02;;;;;;;2.0;1.9;;;;;;;8.3;100.0;101730;;;;
2023/03/20 03:02:05;;;;;;;2.0;1.9;;;;;;;8.3;100.0;101730;;;;
2023/03/20 03:03:05;;;;;;;1.5;1.5;;;;;;;8.3;100.0;101730;;;;
2023/03/20 03:04:05;;;;;;;1.5;1.5;;;;;;;8.3;100.0;101730;;;;
2023/03/20 03:05:03;;;;;;;1.5;1.5;;;;;;;8.3;100.0;101720;;;;
2023/03/20 03:06:05;;;;;;;1.5;1.5;;;;;;;8.3;100.0;101720;;;;
2023/03/20 03:07:02;;;;;;;1.5;1.5;;;;;;;8.3;100.0;101720;;;;
2023/03/20 03:08:01;;;;;;;1.5;1.5;;;;;;;8.3;100.0;101720;;;;
2023/03/20 03:09:04;;;;;;;1.5;1.5;;;;;;;8.2;100.0;101730;;;;
2023/03/20 03:10:03;;;;;;;1.5;1.5;;;;;;;8.2;100.0;101730;;;;
2023/03/20 03:11:04;;;;;;;1.5;1.5;;;;;;;8.2;100.0;101730;;;;
2023/03/20 03:12:04;;;;;;;1.5;1.5;;;;;;;8.2;100.0;101730;;;;
2023/03/20 03:13:02;;;;;;;1.5;1.5;;;;;;;8.2;100.0;101730;;;;
2023/03/20 03:14:00;;;;;;;1.5;1.5;;;;;;;8.2;100.0;101730;;;;
2023/03/20 03:15:02;;;;;;;1.5;1.5;;;;;;;8.2;100.0;101720;;;;
2023/03/20 03:16:04;;;;;;;1.5;1.5;;;;;;;8.2;100.0;101720;;;;
2023/03/20 03:17:02;;;;;;;1.5;1.5;;;;;;;8.1;100.0;101720;;;;
2023/03/20 03:18:03;;;;;;;1.5;1.5;;;;;;;8.1;100.0;101720;;;;
2023/03/20 03:19:05;;;;;;;1.5;1.5;;;;;;;8.1;100.0;101710;;;;
2023/03/20 03:20:04;;;;;;;1.5;1.5;;;;;;;8.1;100.0;101710;;;;
2023/03/20 03:21:01;;;;;;;1.5;1.5;;;;;;;8.1;100.0;101720;;;;
2023/03/20 03:22:00;;;;;;;1.5;1.5;;;;;;;8.1;100.0;101720;;;;
2023/03/20 03:23:00;;;;;;;1.5;1.5;;;;;;;8.1;100.0;101710;;;;
2023/03/20 03:24:00;;;;;;;1.5;1.5;;;;;;;8.1;100.0;101710;;;;
2023/03/20 03:25:00;;;;;;;1.5;1.5;;;;;;;8.1;100.0;101710;;;;
2023/03/20 03:26:02;;;;;;;1.5;1.5;;;;;;;8.1;100.0;101710;;;;
2023/03/20 03:27:02;;;;;;;1.5;1.5;;;;;;;8.1;100.0;101700;;;;
2023/03/20 03:28:10;;;;;;;1.5;1.5;;;;;;;8.1;100.0;101700;;;;
2023/03/20 03:29:02;;;;;;;1.5;1.5;;;;;;;8.1;100.0;101690;;;;
2023/03/20 03:30:02;;;;;;;1.5;1.5;;;;;;;8.1;100.0;101690;;;;
2023/03/20 03:31:01;;;;;;;1.5;1.5;;;;;;;8.2;100.0;101680;;;;
2023/03/20 03:32:02;;;;;;;1.5;1.5;;;;;;;8.2;100.0;101680;;;;
2023/03/20 03:33:08;;;;;;;1.5;1.5;;;;;;;8.2;100.0;101680;;;;
2023/03/20 03:34:00;;;;;;;1.5;1.5;;;;;;;8.2;100.0;101680;;;;
2023/03/20 03:35:01;;;;;;;1.5;1.5;;;;;;;8.2;100.0;101670;;;;
2023/03/20 03:36:07;;;;;;;1.5;1.5;;;;;;;8.2;100.0;101670;;;;
2023/03/20 03:37:01;;;;;;;1.5;1.5;;;;;;;8.1;100.0;101670;;;;
2023/03/20 03:38:05;;;;;;;1.5;1.5;;;;;;;8.1;100.0;101670;;;;
2023/03/20 03:39:06;;;;;;;1.5;1.5;;;;;;;8.1;100.0;101680;;;;
2023/03/20 03:40:06;;;;;;;1.5;1.5;;;;;;;8.1;100.0;101680;;;;
2023/03/20 03:41:06;;;;;;;1.5;1.5;;;;;;;8.0;100.0;101690;;;;
2023/03/20 03:42:10;;;;;;;1.5;1.5;;;;;;;8.0;100.0;101690;;;;
2023/03/20 03:43:02;;;;;;;1.3;1.3;;;;;;;8.0;100.0;101690;;;;
2023/03/20 03:44:10;;;;;;;1.3;1.3;;;;;;;8.0;100.0;101690;;;;
2023/03/20 03:45:04;;;;;;;1.3;1.3;;;;;;;8.1;100.0;101690;;;;
2023/03/20 03:46:04;;;;;;;1.3;1.3;;;;;;;8.1;100.0;101690;;;;
2023/03/20 03:47:06;;;;;;;1.3;1.3;;;;;;;7.9;100.0;101690;;;;
2023/03/20 03:48:04;;;;;;;1.3;1.3;;;;;;;7.9;100.0;101690;;;;
2023/03/20 03:49:01;;;;;;;1.3;1.3;;;;;;;7.9;100.0;101690;;;;
2023/03/20 03:50:04;;;;;;;1.3;1.3;;;;;;;7.9;100.0;101690;;;;
2023/03/20 03:51:04;;;;;;;1.3;1.3;;;;;;;7.9;100.0;101700;;;;
2023/03/20 03:52:02;;;;;;;1.3;1.3;;;;;;;7.9;100.0;101700;;;;
2023/03/20 03:53:03;;;;;;;1.3;1.3;;;;;;;7.9;100.0;101690;;;;
2023/03/20 03:54:10;;;;;;;1.3;1.3;;;;;;;7.9;100.0;101690;;;;
2023/03/20 03:55:05;;;;;;;1.3;1.3;;;;;;;7.9;100.0;101690;;;;
2023/03/20 03:56:03;;;;;;;1.3;1.3;;;;;;;7.9;100.0;101690;;;;
2023/03/20 03:57:01;;;;;;;1.3;1.3;;;;;;;7.8;100.0;101680;;;;
2023/03/20 03:58:03;;;;;;;1.3;1.3;;;;;;;7.8;100.0;101680;;;;
2023/03/20 03:59:03;;;;;;;1.3;1.3;;;;;;;7.8;100.0;101680;;;;
2023/03/20 04:00:02;;;;;;;1.3;1.3;;;;;;;7.8;100.0;101680;;;;
2023/03/20 04:01:01;;;;;;;1.3;1.3;;;;;;;7.8;100.0;101680;;;;
2023/03/20 04:02:02;;;;;;;1.3;1.3;;;;;;;7.8;100.0;101680;;;;
2023/03/20 04:03:00;;;;;;;1.5;1.5;;;;;;;7.8;100.0;101680;;;;
2023/03/20 04:04:05;;;;;;;1.5;1.5;;;;;;;7.8;100.0;101680;;;;
2023/03/20 04:05:01;;;;;;;1.5;1.5;;;;;;;7.8;100.0;101680;;;;
2023/03/20 04:06:01;;;;;;;1.5;1.5;;;;;;;7.8;100.0;101680;;;;
2023/03/20 04:07:00;;;;;;;1.5;1.5;;;;;;;7.8;100.0;101670;;;;
2023/03/20 04:08:01;;;;;;;1.5;1.5;;;;;;;7.8;100.0;101670;;;;
2023/03/20 04:09:00;;;;;;;1.5;1.5;;;;;;;7.8;100.0;101680;;;;
2023/03/20 04:10:00;;;;;;;1.5;1.5;;;;;;;7.8;100.0;101680;;;;
2023/03/20 04:11:00;;;;;;;1.5;1.5;;;;;;;7.7;100.0;101680;;;;
2023/03/20 04:12:00;;;;;;;1.5;1.5;;;;;;;7.7;100.0;101680;;;;
2023/03/20 04:13:00;;;;;;;1.5;1.5;;;;;;;7.7;100.0;101680;;;;
2023/03/20 04:14:01;;;;;;;1.5;1.5;;;;;;;7.7;100.0;101680;;;;
2023/03/20 04:15:03;;;;;;;1.5;1.5;;;;;;;7.6;100.0;101680;;;;
2023/03/20 04:16:00;;;;;;;1.5;1.5;;;;;;;7.6;100.0;101680;;;;
2023/03/20 04:17:00;;;;;;;1.5;1.5;;;;;;;7.7;100.0;101670;;;;
2023/03/20 04:18:00;;;;;;;1.5;1.5;;;;;;;7.7;100.0;101670;;;;
2023/03/20 04:19:00;;;;;;;1.5;1.5;;;;;;;7.8;100.0;101680;;;;
2023/03/20 04:20:00;;;;;;;1.5;1.5;;;;;;;7.8;100.0;101680;;;;
2023/03/20 04:21:00;;;;;;;1.5;1.5;;;;;;;7.6;100.0;101670;;;;
2023/03/20 04:22:00;;;;;;;1.5;1.5;;;;;;;7.6;100.0;101670;;;;
2023/03/20 04:23:00;;;;;;;1.3;1.3;;;;;;;7.7;100.0;101670;;;;
2023/03/20 04:24:00;;;;;;;1.3;1.3;;;;;;;7.7;100.0;101670;;;;
2023/03/20 04:25:02;;;;;;;1.3;1.3;;;;;;;7.7;100.0;101670;;;;
2023/03/20 04:26:01;;;;;;;1.3;1.3;;;;;;;7.7;100.0;101670;;;;
2023/03/20 04:27:00;;;;;;;1.3;1.3;;;;;;;7.7;100.0;101670;;;;
2023/03/20 04:28:00;;;;;;;1.3;1.3;;;;;;;7.7;100.0;101670;;;;
2023/03/20 04:29:00;;;;;;;1.3;1.3;;;;;;;7.6;100.0;101680;;;;
2023/03/20 04:30:00;;;;;;;1.3;1.3;;;;;;;7.6;100.0;101680;;;;
2023/03/20 04:31:01;;;;;;;1.3;1.3;;;;;;;7.6;100.0;101660;;;;
2023/03/20 04:32:00;;;;;;;1.3;1.3;;;;;;;7.6;100.0;101660;;;;
2023/03/20 04:33:01;;;;;;;1.3;1.3;;;;;;;7.5;100.0;101660;;;;
2023/03/20 04:34:00;;;;;;;1.3;1.3;;;;;;;7.5;100.0;101660;;;;
2023/03/20 04:35:00;;;;;;;1.3;1.3;;;;;;;7.6;100.0;101650;;;;
2023/03/20 04:36:00;;;;;;;1.3;1.3;;;;;;;7.6;100.0;101650;;;;
2023/03/20 04:37:00;;;;;;;1.3;1.3;;;;;;;7.5;100.0;101660;;;;
2023/03/20 04:38:00;;;;;;;1.3;1.3;;;;;;;7.5;100.0;101660;;;;
2023/03/20 04:39:00;;;;;;;1.3;1.3;;;;;;;7.4;100.0;101660;;;;
2023/03/20 04:40:00;;;;;;;1.3;1.3;;;;;;;7.4;100.0;101660;;;;
2023/03/20 04:41:00;;;;;;;1.3;1.3;;;;;;;7.4;100.0;101660;;;;
2023/03/20 04:42:00;;;;;;;1.3;1.3;;;;;;;7.4;100.0;101660;;;;
2023/03/20 04:43:00;;;;;;;1.3;1.3;;;;;;;7.4;100.0;101650;;;;
2023/03/20 04:44:00;;;;;;;1.3;1.3;;;;;;;7.4;100.0;101650;;;;
2023/03/20 04:45:00;;;;;;;1.3;1.3;;;;;;;7.6;100.0;101650;;;;
2023/03/20 04:46:00;;;;;;;1.3;1.3;;;;;;;7.6;100.0;101650;;;;
2023/03/20 04:47:00;;;;;;;1.3;1.3;;;;;;;7.5;100.0;101640;;;;
2023/03/20 04:48:00;;;;;;;1.3;1.3;;;;;;;7.5;100.0;101640;;;;
2023/03/20 04:49:00;;;;;;;1.3;1.3;;;;;;;7.4;100.0;101650;;;;
2023/03/20 04:50:00;;;;;;;1.3;1.3;;;;;;;7.4;100.0;101650;;;;
2023/03/20 04:51:00;;;;;;;1.3;1.3;;;;;;;7.4;100.0;101640;;;;
2023/03/20 04:52:00;;;;;;;1.3;1.3;;;;;;;7.4;100.0;101640;;;;
2023/03/20 04:53:00;;;;;;;1.3;1.3;;;;;;;7.4;100.0;101630;;;;
2023/03/20 04:54:00;;;;;;;1.3;1.3;;;;;;;7.4;100.0;101630;;;;
2023/03/20 04:55:00;;;;;;;1.3;1.3;;;;;;;7.4;100.0;101630;;;;
2023/03/20 04:56:02;;;;;;;1.3;1.3;;;;;;;7.4;100.0;101630;;;;
2023/03/20 04:57:00;;;;;;;1.3;1.3;;;;;;;7.3;100.0;101630;;;;
2023/03/20 04:58:00;;;;;;;1.3;1.3;;;;;;;7.3;100.0;101630;;;;
2023/03/20 04:59:00;;;;;;;1.3;1.3;;;;;;;7.4;100.0;101640;;;;
2023/03/20 05:00:00;;;;;;;1.3;1.3;;;;;;;7.4;100.0;101640;;;;
2023/03/20 05:01:00;;;;;;;1.3;1.3;;;;;;;7.5;100.0;101650;;;;
2023/03/20 05:02:00;;;;;;;1.3;1.3;;;;;;;7.5;100.0;101650;;;;
2023/03/20 05:03:00;;;;;;;1.5;1.5;;;;;;;7.5;100.0;101650;;;;
2023/03/20 05:04:00;;;;;;;1.5;1.5;;;;;;;7.5;100.0;101650;;;;
2023/03/20 05:05:00;;;;;;;1.5;1.5;;;;;;;7.4;100.0;101660;;;;
2023/03/20 05:06:00;;;;;;;1.5;1.5;;;;;;;7.4;100.0;101660;;;;
2023/03/20 05:07:00;;;;;;;1.5;1.5;;;;;;;7.4;100.0;101660;;;;
2023/03/20 05:08:00;;;;;;;1.5;1.5;;;;;;;7.4;100.0;101660;;;;
2023/03/20 05:09:00;;;;;;;1.5;1.5;;;;;;;7.5;100.0;101660;;;;
2023/03/20 05:10:00;;;;;;;1.5;1.5;;;;;;;7.5;100.0;101660;;;;
2023/03/20 05:11:00;;;;;;;1.5;1.5;;;;;;;7.4;100.0;101660;;;;
2023/03/20 05:12:00;;;;;;;1.5;1.5;;;;;;;7.4;100.0;101660;;;;
2023/03/20 05:13:00;;;;;;;1.5;1.5;;;;;;;7.4;100.0;101660;;;;
2023/03/20 05:14:00;;;;;;;1.5;1.5;;;;;;;7.4;100.0;101660;;;;
2023/03/20 05:15:00;;;;;;;1.5;1.5;;;;;;;7.4;100.0;101660;;;;
2023/03/20 05:16:00;;;;;;;1.5;1.5;;;;;;;7.4;100.0;101660;;;;
2023/03/20 05:17:00;;;;;;;1.5;1.5;;;;;;;7.4;100.0;101660;;;;
2023/03/20 05:18:00;;;;;;;1.5;1.5;;;;;;;7.4;100.0;101660;;;;
2023/03/20 05:19:00;;;;;;;1.5;1.5;;;;;;;7.3;100.0;101650;;;;
2023/03/20 05:20:00;;;;;;;1.5;1.5;;;;;;;7.3;100.0;101650;;;;
2023/03/20 05:21:01;;;;;;;1.5;1.5;;;;;;;7.4;100.0;101650;;;;
2023/03/20 05:22:00;;;;;;;1.5;1.5;;;;;;;7.4;100.0;101650;;;;
2023/03/20 05:23:00;;;;;;;1.7;1.7;;;;;;;7.4;100.0;101650;;;;
2023/03/20 05:24:00;;;;;;;1.7;1.7;;;;;;;7.4;100.0;101650;;;;
2023/03/20 05:25:00;;;;;;;1.7;1.7;;;;;;;7.4;100.0;101650;;;;
2023/03/20 05:26:00;;;;;;;1.7;1.7;;;;;;;7.4;100.0;101650;;;;
2023/03/20 05:27:00;;;;;;;1.7;1.7;;;;;;;7.4;100.0;101650;;;;
2023/03/20 05:28:00;;;;;;;1.7;1.7;;;;;;;7.4;100.0;101650;;;;
2023/03/20 05:29:00;;;;;;;1.7;1.7;;;;;;;7.3;100.0;101650;;;;
2023/03/20 05:30:00;;;;;;;1.7;1.7;;;;;;;7.3;100.0;101650;;;;
2023/03/20 05:31:00;;;;;;;1.7;1.7;;;;;;;7.3;100.0;101650;;;;
2023/03/20 05:32:00;;;;;;;1.7;1.7;;;;;;;7.3;100.0;101650;;;;
2023/03/20 05:33:00;;;;;;;1.7;1.7;;;;;;;7.3;100.0;101650;;;;
2023/03/20 05:34:00;;;;;;;1.7;1.7;;;;;;;7.3;100.0;101650;;;;
2023/03/20 05:35:00;;;;;;;1.7;1.7;;;;;;;7.4;100.0;101650;;;;
2023/03/20 05:36:00;;;;;;;1.7;1.7;;;;;;;7.4;100.0;101650;;;;
2023/03/20 05:37:00;;;;;;;1.7;1.7;;;;;;;7.2;100.0;101650;;;;
2023/03/20 05:38:00;;;;;;;1.7;1.7;;;;;;;7.2;100.0;101650;;;;
2023/03/20 05:39:00;;;;;;;1.7;1.7;;;;;;;7.2;100.0;101650;;;;
2023/03/20 05:40:00;;;;;;;1.7;1.7;;;;;;;7.2;100.0;101650;;;;
2023/03/20 05:41:00;;;;;;;1.7;1.7;;;;;;;7.3;100.0;101640;;;;
2023/03/20 05:42:00;;;;;;;1.7;1.7;;;;;;;7.3;100.0;101640;;;;
2023/03/20 05:43:00;;;;;;;1.2;1.2;;;;;;;7.3;100.0;101640;;;;
2023/03/20 05:44:00;;;;;;;1.2;1.2;;;;;;;7.3;100.0;101640;;;;
2023/03/20 05:45:00;;;;;;;1.2;1.2;;;;;;;7.2;100.0;101640;;;;
2023/03/20 05:46:00;;;;;;;1.2;1.2;;;;;;;7.2;100.0;101640;;;;
2023/03/20 05:47:00;;;;;;;1.2;1.2;;;;;;;7.3;100.0;101640;;;;
2023/03/20 05:48:00;;;;;;;1.2;1.2;;;;;;;7.3;100.0;101640;;;;
2023/03/20 05:49:00;;;;;;;1.2;1.2;;;;;;;7.3;100.0;101650;;;;
2023/03/20 05:50:00;;;;;;;1.2;1.2;;;;;;;7.3;100.0;101650;;;;
2023/03/20 05:51:00;;;;;;;1.2;1.2;;;;;;;7.3;100.0;101650;;;;
2023/03/20 05:52:00;;;;;;;1.2;1.2;;;;;;;7.3;100.0;101650;;;;
2023/03/20 05:53:00;;;;;;;1.2;1.2;;;;;;;7.4;100.0;101650;;;;
2023/03/20 05:54:00;;;;;;;1.2;1.2;;;;;;;7.4;100.0;101650;;;;
2023/03/20 05:55:00;;;;;;;1.2;1.2;;;;;;;7.4;100.0;101660;;;;
2023/03/20 05:56:00;;;;;;;1.2;1.2;;;;;;;7.4;100.0;101660;;;;
2023/03/20 05:57:00;;;;;;;1.2;1.2;;;;;;;7.4;100.0;101670;;;;
2023/03/20 05:58:00;;;;;;;1.2;1.2;;;;;;;7.4;100.0;101670;;;;
2023/03/20 05:59:01;;;;;;;1.2;1.2;;;;;;;7.3;100.0;101670;;;;
2023/03/20 06:00:00;;;;;;;1.2;1.2;;;;;;;7.3;100.0;101670;;;;
2023/03/20 06:01:00;;;;;;;1.2;1.2;;;;;;;7.4;100.0;101670;;;;
2023/03/20 06:02:00;;;;;;;1.2;1.2;;;;;;;7.4;100.0;101670;;;;
2023/03/20 06:03:00;;;;;;;1.3;1.3;;;;;;;7.4;100.0;101670;;;;
2023/03/20 06:04:00;;;;;;;1.3;1.3;;;;;;;7.4;100.0;101670;;;;
2023/03/20 06:05:00;;;;;;;1.3;1.3;;;;;;;7.5;100.0;101680;;;;
2023/03/20 06:06:00;;;;;;;1.3;1.3;;;;;;;7.5;100.0;101680;;;;
2023/03/20 06:07:00;;;;;;;1.3;1.3;;;;;;;7.5;100.0;101670;;;;
2023/03/20 06:08:00;;;;;;;1.3;1.3;;;;;;;7.5;100.0;101670;;;;
2023/03/20 06:09:00;;;;;;;1.3;1.3;;;;;;;7.5;100.0;101680;;;;
2023/03/20 06:10:00;;;;;;;1.3;1.3;;;;;;;7.5;100.0;101680;;;;
2023/03/20 06:11:00;;;;;;;1.3;1.3;;;;;;;7.5;100.0;101670;;;;
2023/03/20 06:12:00;;;;;;;1.3;1.3;;;;;;;7.5;100.0;101670;;;;
2023/03/20 06:13:00;;;;;;;1.3;1.3;;;;;;;7.5;100.0;101670;;;;
2023/03/20 06:14:00;;;;;;;1.3;1.3;;;;;;;7.5;100.0;101670;;;;
2023/03/20 06:15:00;;;;;;;1.3;1.3;;;;;;;7.6;100.0;101680;;;;
2023/03/20 06:16:01;;;;;;;1.3;1.3;;;;;;;7.6;100.0;101680;;;;
2023/03/20 06:17:00;;;;;;;1.3;1.3;;;;;;;7.6;100.0;101680;;;;
2023/03/20 06:18:00;;;;;;;1.3;1.3;;;;;;;7.6;100.0;101680;;;;
2023/03/20 06:19:00;;;;;;;1.3;1.3;;;;;;;7.6;100.0;101680;;;;
2023/03/20 06:20:00;;;;;;;1.3;1.3;;;;;;;7.6;100.0;101680;;;;
2023/03/20 06:21:01;;;;;;;1.3;1.3;;;;;;;7.6;100.0;101680;;;;
2023/03/20 06:22:00;;;;;;;1.3;1.3;;;;;;;7.6;100.0;101680;;;;
2023/03/20 06:23:00;;;;;;;1.6;1.6;;;;;;;7.6;100.0;101690;;;;
2023/03/20 06:24:00;;;;;;;1.6;1.6;;;;;;;7.6;100.0;101690;;;;
2023/03/20 06:25:00;;;;;;;1.6;1.6;;;;;;;7.6;100.0;101690;;;;
2023/03/20 06:26:00;;;;;;;1.6;1.6;;;;;;;7.6;100.0;101690;;;;
2023/03/20 06:27:00;;;;;;;1.6;1.6;;;;;;;7.6;100.0;101690;;;;
2023/03/20 06:28:00;;;;;;;1.6;1.6;;;;;;;7.6;100.0;101690;;;;